createdAt,value
2018-05-15T00:00:53.901Z,100.00
2018-05-15T00:03:21.297Z,100.00
2018-05-15T00:05:48.706Z,100.00
2018-05-15T00:08:16.245Z,100.00
2018-05-15T00:10:43.632Z,100.00
2018-05-15T00:13:11.659Z,100.00
2018-05-15T00:15:39.060Z,100.00
2018-05-15T00:18:06.455Z,100.00
2018-05-15T00:20:33.876Z,100.00
2018-05-15T00:23:01.277Z,100.00
2018-05-15T00:25:28.688Z,100.00
2018-05-15T00:27:56.192Z,100.00
2018-05-15T00:30:23.596Z,100.00
2018-05-15T00:32:51.004Z,100.00
2018-05-15T00:35:18.467Z,100.00
2018-05-15T00:37:45.907Z,100.00
2018-05-15T00:40:13.322Z,100.00
2018-05-15T00:42:40.729Z,100.00
2018-05-15T00:45:08.314Z,100.00
2018-05-15T00:47:35.716Z,100.00
2018-05-15T00:50:03.221Z,100.00
2018-05-15T00:52:30.552Z,100.00
2018-05-15T00:55:09.599Z,100.00
2018-05-15T00:57:37.006Z,100.00
2018-05-15T01:00:04.408Z,100.00
2018-05-15T01:02:31.813Z,100.00
2018-05-15T01:04:59.205Z,100.00
2018-05-15T01:07:26.640Z,100.00
2018-05-15T01:09:54.187Z,100.00
2018-05-15T01:12:21.605Z,100.00
2018-05-15T01:14:49.009Z,99.91
2018-05-15T01:17:16.714Z,99.98
2018-05-15T01:19:44.111Z,99.89
2018-05-15T01:22:11.526Z,99.86
2018-05-15T01:24:39.053Z,99.83
2018-05-15T01:27:06.651Z,99.82
2018-05-15T01:29:34.054Z,99.64
2018-05-15T01:32:02.221Z,99.50
2018-05-15T01:34:29.676Z,99.39
2018-05-15T01:36:57.876Z,99.57
2018-05-15T01:39:25.276Z,99.78
2018-05-15T01:41:52.691Z,100.00
2018-05-15T01:44:20.100Z,100.00
2018-05-15T01:46:47.500Z,100.00
2018-05-15T01:49:15.316Z,100.00
2018-05-15T01:51:42.723Z,100.00
2018-05-15T01:54:10.131Z,100.00
2018-05-15T01:56:38.295Z,100.00
2018-05-15T01:59:05.680Z,100.00
2018-05-15T02:01:33.079Z,100.00
2018-05-15T02:04:00.491Z,100.00
2018-05-15T02:06:28.848Z,100.00
2018-05-15T02:08:56.256Z,100.00
2018-05-15T02:11:23.673Z,100.00
2018-05-15T02:13:51.087Z,99.65
2018-05-15T02:16:19.103Z,99.58
2018-05-15T02:18:47.464Z,99.37
2018-05-15T02:21:14.879Z,99.52
2018-05-15T02:23:42.292Z,99.75
2018-05-15T02:26:09.688Z,99.87
2018-05-15T02:28:37.088Z,99.76
2018-05-15T02:31:04.816Z,99.60
2018-05-15T02:33:32.751Z,99.64
2018-05-15T02:36:00.900Z,99.41
2018-05-15T02:38:28.428Z,99.33
2018-05-15T02:40:55.834Z,99.35
2018-05-15T02:43:23.224Z,99.42
2018-05-15T02:45:50.795Z,99.50
2018-05-15T02:48:18.193Z,99.61
2018-05-15T02:50:45.605Z,99.68
2018-05-15T02:53:13.010Z,99.65
2018-05-15T02:55:40.790Z,99.86
2018-05-15T02:58:08.201Z,100.00
2018-05-15T03:00:35.601Z,99.87
2018-05-15T03:03:03.219Z,99.83
2018-05-15T03:05:30.619Z,99.93
2018-05-15T03:07:58.021Z,99.88
2018-05-15T03:10:25.420Z,99.77
2018-05-15T03:12:52.825Z,99.66
2018-05-15T03:15:20.226Z,99.64
2018-05-15T03:17:48.531Z,99.53
2018-05-15T03:20:15.980Z,99.39
2018-05-15T03:22:43.424Z,99.35
2018-05-15T03:25:10.815Z,99.32
2018-05-15T03:27:38.262Z,99.17
2018-05-15T03:30:05.714Z,98.71
2018-05-15T03:32:33.100Z,98.56
2018-05-15T03:35:00.507Z,98.36
2018-05-15T03:37:28.043Z,98.41
2018-05-15T03:39:55.452Z,98.41
2018-05-15T03:42:22.843Z,98.27
2018-05-15T03:44:50.245Z,98.34
2018-05-15T03:47:17.774Z,98.39
2018-05-15T03:49:45.177Z,98.28
2018-05-15T03:52:12.565Z,98.33
2018-05-15T03:54:40.186Z,98.41
2018-05-15T03:57:08.295Z,98.49
2018-05-15T03:59:35.699Z,98.41
2018-05-15T04:02:15.216Z,98.27
2018-05-15T04:04:54.343Z,98.27
2018-05-15T04:07:34.417Z,98.35
2018-05-15T04:10:02.195Z,98.84
2018-05-15T04:12:29.595Z,99.04
2018-05-15T04:14:57.292Z,99.01
2018-05-15T04:17:24.684Z,99.09
2018-05-15T04:19:52.588Z,99.19
2018-05-15T04:22:20.024Z,99.33
2018-05-15T04:24:47.429Z,99.32
2018-05-15T04:27:14.824Z,99.11
2018-05-15T04:29:42.234Z,99.03
2018-05-15T04:32:09.636Z,98.87
2018-05-15T04:34:37.036Z,98.90
2018-05-15T04:37:07.220Z,99.06
2018-05-15T04:39:34.961Z,99.02
2018-05-15T04:42:02.370Z,98.93
2018-05-15T04:44:29.840Z,98.87
2018-05-15T04:46:57.281Z,98.74
2018-05-15T04:49:24.729Z,98.59
2018-05-15T04:51:52.872Z,98.68
2018-05-15T04:54:20.371Z,98.62
2018-05-15T04:56:47.761Z,98.36
2018-05-15T04:59:15.164Z,98.27
2018-05-15T05:01:42.579Z,98.21
2018-05-15T05:04:10.104Z,97.99
2018-05-15T05:06:37.508Z,97.85
2018-05-15T05:09:04.919Z,95.26
2018-05-15T05:11:32.419Z,94.00
2018-05-15T05:13:59.813Z,92.47
2018-05-15T05:16:27.972Z,90.75
2018-05-15T05:18:55.367Z,89.45
2018-05-15T05:21:22.768Z,87.53
2018-05-15T05:23:50.177Z,87.52
2018-05-15T05:26:17.564Z,86.74
2018-05-15T05:28:45.063Z,85.41
2018-05-15T05:31:12.462Z,83.80
2018-05-15T05:33:39.856Z,82.59
2018-05-15T05:36:07.525Z,82.88
2018-05-15T05:38:35.043Z,82.63
2018-05-15T05:41:02.455Z,83.47
2018-05-15T05:43:29.848Z,86.17
2018-05-15T05:45:57.345Z,87.42
2018-05-15T05:48:24.735Z,87.21
2018-05-15T05:50:52.314Z,84.73
2018-05-15T05:53:19.695Z,84.75
2018-05-15T05:55:47.277Z,81.52
2018-05-15T05:58:14.676Z,79.56
2018-05-15T06:00:42.076Z,74.36
2018-05-15T06:03:10.005Z,72.32
2018-05-15T06:05:37.428Z,67.65
2018-05-15T06:08:04.830Z,64.97
2018-05-15T06:10:32.233Z,62.45
2018-05-15T06:12:59.623Z,61.09
2018-05-15T06:15:27.030Z,59.04
2018-05-15T06:17:54.431Z,58.11
2018-05-15T06:20:21.842Z,60.29
2018-05-15T06:22:49.303Z,57.17
2018-05-15T06:25:16.917Z,53.50
2018-05-15T06:27:44.311Z,54.32
2018-05-15T06:30:11.780Z,58.18
2018-05-15T06:32:40.157Z,60.39
2018-05-15T06:35:07.564Z,62.00
2018-05-15T06:37:34.959Z,69.50
2018-05-15T06:40:02.496Z,76.09
2018-05-15T06:42:29.889Z,77.24
2018-05-15T06:44:57.287Z,78.71
2018-05-15T06:47:24.687Z,77.32
2018-05-15T06:49:52.236Z,76.21
2018-05-15T06:52:19.644Z,77.93
2018-05-15T06:54:47.277Z,77.31
2018-05-15T06:57:14.690Z,77.22
2018-05-15T06:59:42.075Z,76.90
2018-05-15T07:02:09.479Z,75.34
2018-05-15T07:04:36.875Z,75.47
2018-05-15T07:07:04.307Z,76.15
2018-05-15T07:09:31.704Z,77.02
2018-05-15T07:11:59.129Z,76.99
2018-05-15T07:14:26.516Z,75.80
2018-05-15T07:16:54.016Z,79.03
2018-05-15T07:19:21.444Z,78.11
2018-05-15T07:21:48.820Z,78.73
2018-05-15T07:24:16.222Z,77.34
2018-05-15T07:26:43.639Z,76.30
2018-05-15T07:29:11.033Z,74.95
2018-05-15T07:31:38.433Z,76.04
2018-05-15T07:34:05.932Z,74.38
2018-05-15T07:36:33.332Z,73.49
2018-05-15T07:39:00.728Z,74.81
2018-05-15T07:41:28.344Z,76.53
2018-05-15T07:43:55.911Z,76.30
2018-05-15T07:46:23.315Z,77.24
2018-05-15T07:48:50.711Z,77.92
2018-05-15T07:51:18.860Z,74.99
2018-05-15T07:53:46.359Z,75.88
2018-05-15T07:56:14.060Z,74.29
2018-05-15T07:58:41.493Z,75.03
2018-05-15T08:01:08.989Z,75.30
2018-05-15T08:03:36.384Z,75.05
2018-05-15T08:06:03.785Z,73.35
2018-05-15T08:08:31.464Z,71.99
2018-05-15T08:10:58.856Z,71.08
2018-05-15T08:13:26.270Z,72.08
2018-05-15T08:15:53.680Z,72.85
2018-05-15T08:18:21.076Z,75.14
2018-05-15T08:20:48.467Z,72.12
2018-05-15T08:23:15.864Z,70.87
2018-05-15T08:25:43.278Z,71.08
2018-05-15T08:28:10.722Z,72.52
2018-05-15T08:30:38.117Z,71.32
2018-05-15T08:33:05.531Z,69.67
2018-05-15T08:35:32.944Z,67.69
2018-05-15T08:38:00.347Z,69.15
2018-05-15T08:40:27.735Z,70.27
2018-05-15T08:42:55.142Z,70.49
2018-05-15T08:45:22.546Z,69.85
2018-05-15T08:47:49.960Z,68.78
2018-05-15T08:50:17.352Z,64.88
2018-05-15T08:52:44.760Z,64.77
2018-05-15T08:55:12.145Z,65.76
2018-05-15T08:57:39.544Z,67.55
2018-05-15T09:00:06.943Z,68.00
2018-05-15T09:02:34.382Z,68.95
2018-05-15T09:05:01.777Z,64.86
2018-05-15T09:07:29.171Z,66.15
2018-05-15T09:09:56.573Z,64.77
2018-05-15T09:12:24.118Z,65.88
2018-05-15T09:14:51.513Z,66.80
2018-05-15T09:17:18.909Z,66.19
2018-05-15T09:19:47.174Z,62.79
2018-05-15T09:22:14.576Z,65.08
2018-05-15T09:24:41.978Z,60.92
2018-05-15T09:27:09.524Z,60.95
2018-05-15T09:29:36.929Z,60.78
2018-05-15T09:32:04.321Z,61.77
2018-05-15T09:34:31.737Z,61.60
2018-05-15T09:36:59.352Z,63.91
2018-05-15T09:39:26.747Z,62.77
2018-05-15T09:41:54.144Z,63.91
2018-05-15T09:44:21.553Z,61.62
2018-05-15T09:46:49.278Z,62.09
2018-05-15T09:49:16.920Z,59.67
2018-05-15T09:51:44.318Z,60.98
2018-05-15T09:54:11.882Z,61.16
2018-05-15T09:56:39.369Z,60.09
2018-05-15T09:59:06.764Z,59.17
2018-05-15T10:01:35.071Z,57.77
2018-05-15T10:04:02.503Z,57.12
2018-05-15T10:06:30.522Z,56.76
2018-05-15T10:08:57.912Z,54.55
2018-05-15T10:11:25.367Z,55.68
2018-05-15T10:13:52.784Z,56.10
2018-05-15T10:16:20.167Z,56.28
2018-05-15T10:18:48.560Z,55.12
2018-05-15T10:21:16.019Z,55.92
2018-05-15T10:23:43.424Z,56.02
2018-05-15T10:26:10.812Z,54.10
2018-05-15T10:28:38.237Z,53.26
2018-05-15T10:31:05.630Z,53.65
2018-05-15T10:33:33.040Z,53.60
2018-05-15T10:36:00.433Z,52.26
2018-05-15T10:38:27.869Z,52.23
2018-05-15T10:40:55.268Z,54.06
2018-05-15T10:43:22.680Z,51.37
2018-05-15T10:45:50.113Z,51.85
2018-05-15T10:48:17.628Z,50.54
2018-05-15T10:50:45.040Z,51.40
2018-05-15T10:53:12.435Z,50.24
2018-05-15T10:55:39.880Z,48.75
2018-05-15T10:58:07.323Z,49.80
2018-05-15T11:00:34.709Z,49.91
2018-05-15T11:03:02.149Z,51.16
2018-05-15T11:05:29.924Z,51.45
2018-05-15T11:07:57.722Z,50.62
2018-05-15T11:10:25.719Z,48.64
2018-05-15T11:12:53.943Z,48.47
2018-05-15T11:15:21.280Z,47.01
2018-05-15T11:17:48.677Z,44.31
2018-05-15T11:20:27.858Z,46.11
2018-05-15T11:23:07.405Z,46.29
2018-05-15T11:25:34.792Z,46.77
2018-05-15T11:28:02.171Z,46.38
2018-05-15T11:30:29.602Z,46.99
2018-05-15T11:32:56.963Z,47.09
2018-05-15T11:35:24.359Z,47.36
2018-05-15T11:37:51.752Z,44.58
2018-05-15T11:40:19.216Z,43.87
2018-05-15T11:42:46.616Z,42.51
2018-05-15T11:45:14.008Z,44.90
2018-05-15T11:47:41.462Z,45.93
2018-05-15T11:50:09.447Z,47.77
2018-05-15T11:52:36.597Z,46.08
2018-05-15T11:55:03.695Z,47.94
2018-05-15T11:57:31.089Z,46.49
2018-05-15T11:59:58.610Z,46.05
2018-05-15T12:02:25.942Z,45.19
2018-05-15T12:04:54.208Z,44.59
2018-05-15T12:07:21.645Z,44.41
2018-05-15T12:09:49.131Z,42.78
2018-05-15T12:12:17.022Z,43.34
2018-05-15T12:14:44.415Z,43.55
2018-05-15T12:17:12.079Z,44.56
2018-05-15T12:19:39.464Z,43.89
2018-05-15T12:22:06.869Z,42.71
2018-05-15T12:24:34.338Z,42.34
2018-05-15T12:27:02.357Z,43.50
2018-05-15T12:29:29.755Z,43.76
2018-05-15T12:31:57.164Z,44.77
2018-05-15T12:34:25.326Z,44.23
2018-05-15T12:36:53.271Z,44.18
2018-05-15T12:39:21.171Z,41.10
2018-05-15T12:41:48.604Z,40.36
2018-05-15T12:44:15.973Z,40.86
2018-05-15T12:46:43.383Z,40.16
2018-05-15T12:49:10.736Z,39.87
2018-05-15T12:51:38.141Z,39.61
2018-05-15T12:54:05.624Z,38.48
2018-05-15T12:56:32.928Z,40.05
2018-05-15T12:59:00.321Z,38.04
2018-05-15T13:01:27.718Z,37.96
2018-05-15T13:03:55.109Z,40.50
2018-05-15T13:06:22.684Z,41.46
2018-05-15T13:08:50.077Z,41.46
2018-05-15T13:11:17.493Z,41.90
2018-05-15T13:13:44.884Z,41.41
2018-05-15T13:16:12.324Z,41.62
2018-05-15T13:18:39.755Z,40.86
2018-05-15T13:21:07.125Z,39.69
2018-05-15T13:23:34.520Z,39.94
2018-05-15T13:26:02.257Z,39.00
2018-05-15T13:28:29.635Z,39.29
2018-05-15T13:30:57.044Z,38.96
2018-05-15T13:33:24.563Z,36.06
2018-05-15T13:35:51.948Z,35.37
2018-05-15T13:38:19.341Z,37.19
2018-05-15T13:40:46.746Z,34.21
2018-05-15T13:43:14.138Z,35.65
2018-05-15T13:45:41.547Z,35.53
2018-05-15T13:48:08.934Z,36.02
2018-05-15T13:50:36.389Z,36.05
2018-05-15T13:53:04.175Z,34.98
2018-05-15T13:55:31.580Z,35.42
2018-05-15T13:57:58.944Z,35.31
2018-05-15T14:00:26.791Z,34.12
2018-05-15T14:02:54.339Z,35.70
2018-05-15T14:05:21.751Z,35.83
2018-05-15T14:07:49.269Z,35.48
2018-05-15T14:10:16.671Z,34.24
2018-05-15T14:12:44.063Z,34.36
2018-05-15T14:15:11.455Z,34.31
2018-05-15T14:17:38.969Z,33.37
2018-05-15T14:20:06.391Z,32.89
2018-05-15T14:22:33.780Z,34.78
2018-05-15T14:25:01.157Z,36.01
2018-05-15T14:27:28.645Z,36.63
2018-05-15T14:29:56.100Z,37.02
2018-05-15T14:32:23.484Z,36.33
2018-05-15T14:34:50.873Z,35.18
2018-05-15T14:37:18.395Z,36.15
2018-05-15T14:39:45.787Z,35.28
2018-05-15T14:42:25.116Z,35.56
2018-05-15T14:44:52.868Z,35.98
2018-05-15T14:47:20.304Z,36.55
2018-05-15T14:49:47.693Z,36.46
2018-05-15T14:52:15.090Z,37.72
2018-05-15T14:54:42.477Z,38.19
2018-05-15T14:57:09.901Z,38.76
2018-05-15T14:59:37.297Z,39.25
2018-05-15T15:02:04.697Z,39.66
2018-05-15T15:04:32.094Z,39.93
2018-05-15T17:25:03.437Z,64.93
2018-05-15T17:30:33.367Z,69.40
2018-05-15T17:33:02.200Z,71.12
2018-05-15T17:35:29.785Z,72.83
2018-05-15T17:44:02.450Z,75.00
2018-05-15T17:46:29.840Z,75.56
2018-05-15T17:48:57.224Z,77.24
2018-05-15T17:51:24.653Z,76.60
2018-05-15T17:53:52.040Z,78.02
2018-05-15T17:56:19.439Z,78.59
2018-05-15T17:58:46.832Z,79.45
2018-05-15T18:01:14.396Z,78.09
2018-05-15T18:03:41.798Z,77.47
2018-05-15T18:06:09.197Z,76.85
2018-05-15T18:08:36.664Z,77.16
2018-05-15T18:11:04.124Z,77.74
2018-05-15T18:13:32.312Z,77.71
2018-05-15T18:15:59.782Z,77.98
2018-05-15T18:18:27.866Z,78.24
2018-05-15T18:20:55.256Z,76.32
2018-05-15T18:23:23.559Z,78.21
2018-05-15T18:25:51.209Z,75.79
2018-05-15T18:28:18.596Z,77.67
2018-05-15T18:30:46.006Z,77.44
2018-05-15T18:33:13.494Z,76.56
2018-05-15T18:35:40.788Z,77.03
2018-05-15T18:38:08.177Z,73.73
2018-05-15T18:40:35.583Z,72.73
2018-05-15T18:43:02.984Z,72.43
2018-05-15T18:45:30.408Z,74.10
2018-05-15T18:47:57.776Z,73.86
2018-05-15T18:50:25.177Z,76.45
2018-05-15T18:52:52.925Z,75.94
2018-05-15T18:55:20.310Z,75.60
2018-05-15T18:57:47.704Z,75.85
2018-05-15T19:00:15.095Z,75.45
2018-05-15T19:02:42.475Z,74.47
2018-05-15T19:05:09.891Z,74.94
2018-05-15T19:07:37.280Z,74.91
2018-05-15T19:10:05.143Z,75.86
2018-05-15T19:12:32.542Z,76.65
2018-05-15T19:14:59.941Z,76.60
2018-05-15T19:17:27.489Z,76.48
2018-05-15T19:19:54.891Z,77.30
2018-05-15T19:22:22.280Z,78.40
2018-05-15T19:24:49.792Z,78.33
2018-05-15T19:27:17.854Z,78.51
2018-05-15T19:29:45.254Z,79.12
2018-05-15T19:32:17.527Z,77.98
2018-05-15T19:34:50.441Z,79.20
2018-05-15T19:37:17.887Z,78.78
2018-05-15T19:39:45.309Z,79.60
2018-05-15T19:42:12.688Z,79.78
2018-05-15T19:44:40.349Z,79.32
2018-05-15T19:47:07.753Z,79.32
2018-05-15T19:49:35.147Z,81.13
2018-05-15T19:52:02.534Z,81.76
2018-05-15T19:54:29.938Z,81.74
2018-05-15T19:56:57.387Z,82.67
2018-05-15T19:59:24.780Z,84.05
2018-05-15T20:01:52.195Z,83.56
2018-05-15T20:04:19.701Z,82.34
2018-05-15T20:06:47.106Z,82.59
2018-05-15T20:09:14.490Z,82.07
2018-05-15T20:11:41.889Z,82.56
2018-05-15T20:14:09.340Z,83.18
2018-05-15T20:16:36.766Z,83.61
2018-05-15T20:19:04.158Z,84.11
2018-05-15T20:21:31.560Z,84.07
2018-05-15T20:23:58.971Z,84.27
2018-05-15T20:26:26.378Z,84.80
2018-05-15T20:28:53.857Z,85.00
2018-05-15T20:31:21.264Z,84.76
2018-05-15T20:33:48.657Z,84.31
2018-05-15T20:36:16.059Z,83.84
2018-05-15T20:38:43.717Z,83.17
2018-05-15T20:41:11.120Z,82.42
2018-05-15T20:43:39.248Z,82.21
2018-05-15T20:46:06.658Z,82.26
2018-05-15T20:48:34.055Z,82.53
2018-05-15T20:51:01.439Z,82.88
2018-05-15T20:53:29.627Z,81.53
2018-05-15T20:55:57.092Z,81.70
2018-05-15T20:58:24.480Z,83.09
2018-05-15T21:00:51.879Z,82.69
2018-05-15T21:03:19.281Z,83.74
2018-05-15T21:05:47.222Z,84.08
2018-05-15T21:08:14.611Z,83.42
2018-05-15T21:10:42.005Z,83.44
2018-05-15T21:13:09.598Z,83.48
2018-05-15T21:15:36.991Z,83.77
2018-05-15T21:18:04.387Z,84.19
2018-05-15T21:20:31.785Z,84.23
2018-05-15T21:22:59.283Z,84.16
2018-05-15T21:25:26.668Z,84.01
2018-05-15T21:27:54.080Z,83.63
2018-05-15T21:30:21.478Z,83.19
2018-05-15T21:32:48.873Z,83.73
2018-05-15T21:35:16.265Z,84.38
2018-05-15T21:37:43.664Z,84.20
2018-05-15T21:40:11.868Z,83.99
2018-05-15T21:42:39.265Z,83.57
2018-05-15T21:45:06.667Z,84.41
2018-05-15T21:47:34.068Z,85.52
2018-05-15T21:50:01.746Z,85.56
2018-05-15T21:52:29.156Z,85.70
2018-05-15T21:54:56.563Z,86.06
2018-05-15T21:57:24.048Z,85.60
2018-05-15T22:02:40.168Z,85.41
2018-05-15T22:05:07.564Z,84.52
2018-05-15T22:07:34.974Z,83.41
2018-05-15T22:10:03.083Z,83.60
2018-05-15T22:12:42.690Z,84.09
2018-05-15T22:15:21.803Z,85.12
2018-05-15T22:18:01.039Z,85.73
2018-05-15T22:20:40.364Z,86.03
2018-05-15T22:23:07.163Z,85.51
2018-05-15T22:25:34.544Z,85.81
2018-05-15T22:28:01.946Z,86.38
2018-05-15T22:30:29.343Z,87.14
2018-05-15T22:32:56.751Z,87.68
2018-05-15T22:35:24.185Z,87.52
2018-05-15T22:37:51.604Z,87.23
2018-05-15T22:40:19.028Z,86.58
2018-05-15T22:42:46.402Z,87.47
2018-05-15T22:45:14.185Z,88.77
2018-05-15T22:47:41.877Z,89.04
2018-05-15T22:50:09.273Z,89.62
2018-05-15T22:52:36.664Z,90.27
2018-05-15T22:55:04.092Z,90.52
2018-05-15T22:57:31.487Z,90.14
2018-05-15T22:59:58.888Z,90.20
2018-05-15T23:02:26.331Z,89.67
2018-05-15T23:04:53.874Z,89.56
2018-05-15T23:07:21.267Z,89.51
2018-05-15T23:09:48.666Z,89.56
2018-05-15T23:12:16.308Z,89.59
2018-05-15T23:14:43.719Z,89.79
2018-05-15T23:17:11.111Z,89.59
2018-05-15T23:19:38.516Z,88.83
2018-05-15T23:22:05.974Z,88.79
2018-05-15T23:24:33.376Z,89.58
2018-05-15T23:27:00.768Z,89.56
2018-05-15T23:29:28.269Z,89.68
2018-05-15T23:31:55.882Z,90.80
2018-05-15T23:34:23.286Z,90.93
2018-05-15T23:36:50.672Z,90.85
2018-05-15T23:39:18.080Z,90.73
2018-05-15T23:41:45.508Z,90.50
2018-05-15T23:44:12.913Z,90.44
2018-05-15T23:46:40.329Z,90.74
2018-05-15T23:49:07.820Z,90.62
2018-05-15T23:51:35.240Z,89.88
2018-05-15T23:54:02.632Z,89.83
2018-05-15T23:56:30.053Z,89.81
2018-05-15T23:58:57.456Z,90.84
